createdAt,value
2023-04-22T00:00:50.383Z,976.95
2023-04-22T00:12:50.858Z,976.97
2023-04-22T00:24:51.290Z,976.84
2023-04-22T00:36:51.798Z,976.77
2023-04-22T00:48:52.514Z,976.64
2023-04-22T01:00:52.749Z,976.74
2023-04-22T01:12:53.120Z,976.77
2023-04-22T01:24:53.595Z,976.81
2023-04-22T01:36:54.019Z,976.68
2023-04-22T01:48:54.464Z,976.78
2023-04-22T02:00:54.953Z,976.58
2023-04-22T02:12:55.381Z,976.61
2023-04-22T02:24:55.863Z,976.59
2023-04-22T02:36:56.291Z,976.57
2023-04-22T02:48:56.743Z,976.63
2023-04-22T03:00:57.272Z,976.55
2023-04-22T03:12:57.673Z,976.58
2023-04-22T03:24:58.109Z,976.55
2023-04-22T03:36:58.536Z,976.60
2023-04-22T03:48:59.048Z,976.69
2023-04-22T04:00:59.464Z,976.63
2023-04-22T04:12:59.887Z,976.68
2023-04-22T04:25:00.375Z,976.78
2023-04-22T04:37:00.846Z,976.74
2023-04-22T04:49:01.244Z,976.86
2023-04-22T05:01:01.697Z,976.91
2023-04-22T05:13:04.264Z,976.84
2023-04-22T05:25:02.616Z,976.82
2023-04-22T05:37:03.096Z,976.89
2023-04-22T05:49:03.532Z,976.78
2023-04-22T06:01:03.981Z,976.82
2023-04-22T06:13:04.445Z,976.81
2023-04-22T06:25:04.896Z,976.70
2023-04-22T06:37:05.369Z,976.66
2023-04-22T06:49:05.789Z,976.69
2023-04-22T07:01:06.261Z,976.53
2023-04-22T07:13:06.678Z,976.47
2023-04-22T07:25:07.163Z,976.48
2023-04-22T07:37:07.646Z,976.58
2023-04-22T07:49:08.063Z,976.56
2023-04-22T08:01:08.533Z,976.53
2023-04-22T08:13:08.954Z,976.63
2023-04-22T08:25:09.425Z,976.53
2023-04-22T08:37:09.919Z,976.59
2023-04-22T08:49:10.355Z,976.46
2023-04-22T09:01:10.859Z,976.60
2023-04-22T09:13:11.257Z,976.58
2023-04-22T09:25:11.714Z,976.51
2023-04-22T09:37:12.134Z,976.53
2023-04-22T09:49:12.605Z,976.44
2023-04-22T10:01:13.101Z,976.27
2023-04-22T10:13:13.535Z,976.26
2023-04-22T10:25:14.019Z,976.03
2023-04-22T10:37:14.402Z,976.02
2023-04-22T10:49:15.336Z,975.97
2023-04-22T11:01:15.349Z,975.80
2023-04-22T11:13:15.780Z,975.76
2023-04-22T11:25:16.244Z,975.77
2023-04-22T11:37:16.722Z,975.83
2023-04-22T11:49:17.157Z,975.87
2023-04-22T12:01:17.595Z,975.81
2023-04-22T12:13:18.074Z,975.66
2023-04-22T12:25:18.550Z,975.60
2023-04-22T12:37:19.025Z,975.61
2023-04-22T12:49:19.430Z,975.35
2023-04-22T13:01:19.909Z,975.24
2023-04-22T13:13:20.351Z,975.18
2023-04-22T13:25:20.848Z,975.03
2023-04-22T13:37:21.271Z,974.80
2023-04-22T13:49:21.713Z,974.86
2023-04-22T14:01:22.174Z,974.79
2023-04-22T14:13:22.660Z,974.55
2023-04-22T14:25:23.119Z,974.61
2023-04-22T14:37:24.090Z,974.70
2023-04-22T14:49:23.995Z,974.47
2023-04-22T15:01:24.497Z,974.38
2023-04-22T15:13:24.905Z,974.24
2023-04-22T15:25:25.380Z,974.24
2023-04-22T15:37:25.834Z,974.13
2023-04-22T15:49:26.275Z,974.27
2023-04-22T16:01:26.775Z,974.24
2023-04-22T16:13:27.161Z,974.21
2023-04-22T16:25:27.646Z,974.18
2023-04-22T16:37:28.129Z,974.13
2023-04-22T16:49:28.577Z,974.13
2023-04-22T17:01:29.050Z,974.19
2023-04-22T17:13:29.456Z,974.17
2023-04-22T17:25:29.923Z,974.21
2023-04-22T17:37:30.361Z,974.18
2023-04-22T17:49:30.821Z,974.24
2023-04-22T18:01:31.309Z,974.27
2023-04-22T18:13:31.760Z,974.27
2023-04-22T18:25:32.187Z,974.36
2023-04-22T18:37:32.642Z,974.42
2023-04-22T18:49:33.114Z,974.52
2023-04-22T19:01:33.641Z,974.54
2023-04-22T19:13:34.008Z,974.56
2023-04-22T19:25:34.460Z,974.70
2023-04-22T19:37:35.007Z,974.65
2023-04-22T19:49:35.399Z,974.67
2023-04-22T20:01:35.877Z,974.69
2023-04-22T20:13:36.288Z,974.75
2023-04-22T20:25:36.749Z,974.67
2023-04-22T20:37:37.247Z,974.75
2023-04-22T20:49:37.635Z,974.62
2023-04-22T21:01:38.225Z,974.68
2023-04-22T21:13:38.566Z,974.69
2023-04-22T21:25:39.028Z,974.84
2023-04-22T21:37:39.476Z,974.88
2023-04-22T21:49:39.941Z,974.84
2023-04-22T22:01:40.398Z,974.81
2023-04-22T22:13:40.847Z,974.79
2023-04-22T22:25:41.275Z,974.78
2023-04-22T22:37:41.742Z,974.73
2023-04-22T22:49:42.179Z,974.73
2023-04-22T23:01:42.687Z,974.64
2023-04-22T23:13:43.067Z,974.64
2023-04-22T23:25:43.533Z,974.55
2023-04-22T23:37:43.999Z,974.41
2023-04-22T23:49:44.467Z,974.24
